createdAt,value
2022-08-03T00:01:27.923Z,15.68
2022-08-03T00:03:54.516Z,14.20
2022-08-03T00:06:21.252Z,9.13
2022-08-03T00:08:47.947Z,16.92
2022-08-03T00:11:14.731Z,14.77
2022-08-03T00:13:41.530Z,15.00
2022-08-03T00:16:10.840Z,15.18
2022-08-03T00:18:38.144Z,14.55
2022-08-03T00:21:05.881Z,16.33
2022-08-03T00:23:51.682Z,11.95
2022-08-03T00:26:20.619Z,15.95
2022-08-03T00:28:47.488Z,13.65
2022-08-03T00:31:14.317Z,16.25
2022-08-03T00:33:58.180Z,20.02
2022-08-03T00:36:27.634Z,15.07
2022-08-03T00:38:54.567Z,12.23
2022-08-03T00:41:21.396Z,15.30
2022-08-03T00:43:48.269Z,14.93
2022-08-03T00:46:20.561Z,19.08
2022-08-03T00:48:53.266Z,13.88
2022-08-03T00:51:24.085Z,12.70
2022-08-03T00:53:51.217Z,16.05
2022-08-03T00:56:18.241Z,14.07
2022-08-03T00:58:46.200Z,16.17
2022-08-03T01:01:13.172Z,14.52
2022-08-03T01:03:40.298Z,17.02
2022-08-03T01:06:16.112Z,11.23
2022-08-03T01:09:10.656Z,17.83
2022-08-03T01:12:01.069Z,13.13
2022-08-03T01:14:34.030Z,14.63
2022-08-03T01:17:14.942Z,12.70
2022-08-03T01:20:00.548Z,8.98
2022-08-03T01:25:16.333Z,13.52
2022-08-03T01:28:11.531Z,11.45
2022-08-03T01:30:40.451Z,12.23
2022-08-03T01:33:24.351Z,15.68
2022-08-03T01:36:00.823Z,18.60
2022-08-03T01:40:57.098Z,15.23
2022-08-03T01:44:27.144Z,10.00
2022-08-03T01:46:17.788Z,16.13
2022-08-03T01:48:47.526Z,13.75
2022-08-03T01:51:16.856Z,13.15
2022-08-03T01:53:44.634Z,16.65
2022-08-03T01:56:13.487Z,14.48
2022-08-03T01:58:42.300Z,17.48
2022-08-03T02:01:10.409Z,12.32
2022-08-03T02:04:00.226Z,21.27
2022-08-03T02:07:02.847Z,14.40
2022-08-03T02:09:17.423Z,14.20
2022-08-03T02:11:46.728Z,13.30
2022-08-03T02:14:14.828Z,15.60
2022-08-03T02:16:43.906Z,16.08
2022-08-03T02:19:11.761Z,13.05
2022-08-03T02:21:56.316Z,8.10
2022-08-03T02:24:25.546Z,14.77
2022-08-03T02:26:55.725Z,23.52
2022-08-03T02:29:39.247Z,12.07
2022-08-03T02:32:14.477Z,11.48
2022-08-03T02:34:45.277Z,12.38
2022-08-03T02:37:13.630Z,10.65
2022-08-03T02:39:42.979Z,11.45
2022-08-03T02:42:12.926Z,15.23
2022-08-03T02:44:41.672Z,9.88
2022-08-03T02:47:11.133Z,10.18
2022-08-03T02:49:51.368Z,11.13
2022-08-03T02:52:21.714Z,11.45
2022-08-03T02:54:51.267Z,14.15
2022-08-03T02:57:21.734Z,10.70
2022-08-03T02:59:49.790Z,11.63
2022-08-03T03:02:18.423Z,14.70
2022-08-03T03:04:59.717Z,15.15
2022-08-03T03:07:39.794Z,15.98
2022-08-03T03:10:21.708Z,13.07
2022-08-03T03:12:52.065Z,11.80
2022-08-03T03:15:19.118Z,12.48
2022-08-03T03:17:46.992Z,10.20
2022-08-03T03:20:15.787Z,10.95
2022-08-03T03:22:58.385Z,10.43
2022-08-03T03:25:25.217Z,10.30
2022-08-03T03:27:52.361Z,11.27
2022-08-03T03:30:19.236Z,17.83
2022-08-03T03:32:46.047Z,11.75
2022-08-03T03:35:14.318Z,11.80
2022-08-03T03:37:40.973Z,10.70
2022-08-03T03:40:09.110Z,7.40
2022-08-03T03:42:36.174Z,11.65
2022-08-03T03:45:07.179Z,14.85
2022-08-03T03:47:37.874Z,10.30
2022-08-03T03:50:06.843Z,14.68
2022-08-03T03:52:34.142Z,12.02
2022-08-03T03:55:01.509Z,11.68
2022-08-03T03:57:29.696Z,6.35
2022-08-03T03:59:56.471Z,12.65
2022-08-03T04:02:23.188Z,8.13
2022-08-03T04:05:08.485Z,8.20
2022-08-03T04:08:10.150Z,12.32
2022-08-03T04:10:58.291Z,9.15
2022-08-03T04:13:27.849Z,9.48
2022-08-03T04:15:57.745Z,10.70
2022-08-03T04:18:28.225Z,11.68
2022-08-03T04:20:59.276Z,9.32
2022-08-03T04:23:27.821Z,14.75
2022-08-03T04:25:56.493Z,10.48
2022-08-03T04:28:30.125Z,11.05
2022-08-03T04:31:01.250Z,14.55
2022-08-03T04:33:32.462Z,9.65
2022-08-03T04:36:03.414Z,10.05
2022-08-03T04:38:44.441Z,9.35
2022-08-03T04:41:12.378Z,14.93
2022-08-03T04:43:42.122Z,13.50
2022-08-03T04:46:09.976Z,8.20
2022-08-03T04:48:36.840Z,6.60
2022-08-03T04:51:04.531Z,9.77
2022-08-03T04:53:31.407Z,8.52
2022-08-03T04:56:05.818Z,9.60
2022-08-03T04:58:33.023Z,7.03
2022-08-03T05:00:59.990Z,9.82
2022-08-03T05:03:26.704Z,6.93
2022-08-03T05:06:09.790Z,11.55
2022-08-03T05:08:46.454Z,12.70
2022-08-03T05:11:16.631Z,11.70
2022-08-03T05:13:44.705Z,10.98
2022-08-03T05:16:12.229Z,7.05
2022-08-03T05:18:38.998Z,9.05
2022-08-03T05:21:05.667Z,7.03
2022-08-03T05:23:32.412Z,9.52
2022-08-03T05:25:59.111Z,9.85
2022-08-03T05:28:26.222Z,10.68
2022-08-03T05:30:53.029Z,7.18
2022-08-03T05:33:19.656Z,9.43
2022-08-03T05:35:57.397Z,8.13
2022-08-03T05:38:33.922Z,8.13
2022-08-03T05:41:23.556Z,7.63
2022-08-03T05:43:53.945Z,8.07
2022-08-03T05:46:21.921Z,10.27
2022-08-03T05:48:48.736Z,6.22
2022-08-03T05:51:15.481Z,5.38
2022-08-03T05:53:43.639Z,6.80
2022-08-03T05:56:14.189Z,7.22
2022-08-03T05:58:45.973Z,5.13
2022-08-03T06:01:12.961Z,4.85
2022-08-03T06:03:40.298Z,7.97
2022-08-03T06:06:07.507Z,6.18
2022-08-03T06:08:35.520Z,5.10
2022-08-03T06:11:02.624Z,8.40
2022-08-03T06:13:29.646Z,5.25
2022-08-03T06:15:56.695Z,6.68
2022-08-03T06:18:24.652Z,10.57
2022-08-03T06:20:52.318Z,6.97
2022-08-03T06:23:19.320Z,10.05
2022-08-03T06:25:47.468Z,8.68
2022-08-03T06:31:03.168Z,8.93
2022-08-03T06:34:30.228Z,9.75
2022-08-03T06:38:43.079Z,10.15
2022-08-03T06:41:09.705Z,7.55
2022-08-03T06:43:38.135Z,7.65
2022-08-03T06:46:24.385Z,7.15
2022-08-03T06:48:51.250Z,4.20
2022-08-03T06:51:18.356Z,9.77
2022-08-03T06:53:45.126Z,6.40
2022-08-03T06:56:11.841Z,8.13
2022-08-03T06:58:38.561Z,7.45
2022-08-03T07:01:05.321Z,3.20
2022-08-03T07:03:32.321Z,2.75
2022-08-03T07:06:00.029Z,2.50
2022-08-03T07:08:33.614Z,4.18
2022-08-03T07:11:01.629Z,2.58
2022-08-03T07:13:28.834Z,4.32
2022-08-03T07:15:58.229Z,3.17
2022-08-03T07:18:29.686Z,3.20
2022-08-03T07:20:58.018Z,4.43
2022-08-03T07:23:25.851Z,0.65
2022-08-03T07:25:53.093Z,2.83
2022-08-03T07:28:23.102Z,3.03
2022-08-03T07:30:49.758Z,0.63
2022-08-03T07:33:16.591Z,1.50
2022-08-03T07:35:43.639Z,2.75
2022-08-03T07:38:10.750Z,3.00
2022-08-03T07:40:43.161Z,2.45
2022-08-03T07:43:12.411Z,2.85
2022-08-03T07:45:39.181Z,3.67
2022-08-03T07:48:11.639Z,3.35
2022-08-03T07:50:39.076Z,2.72
2022-08-03T07:53:05.912Z,3.20
2022-08-03T07:55:32.681Z,1.60
2022-08-03T07:58:09.871Z,2.10
2022-08-03T08:00:37.010Z,3.03
2022-08-03T08:03:04.539Z,1.35
2022-08-03T08:05:31.696Z,1.48
2022-08-03T08:07:58.482Z,2.38
2022-08-03T08:10:25.522Z,3.38
2022-08-03T08:12:52.994Z,3.63
2022-08-03T08:15:19.948Z,0.85
2022-08-03T08:17:55.020Z,1.98
2022-08-03T08:20:27.966Z,4.28
2022-08-03T08:23:19.942Z,2.72
2022-08-03T08:25:52.042Z,3.78
2022-08-03T08:28:32.191Z,4.25
2022-08-03T08:30:59.980Z,2.92
2022-08-03T08:33:37.323Z,3.88
2022-08-03T08:36:15.399Z,2.42
2022-08-03T08:38:44.683Z,3.20
2022-08-03T08:41:13.280Z,3.10
2022-08-03T08:43:40.139Z,3.60
2022-08-03T08:46:10.554Z,3.50
2022-08-03T08:48:42.142Z,5.32
2022-08-03T08:51:11.681Z,3.00
2022-08-03T08:53:41.569Z,3.95
2022-08-03T08:56:12.968Z,4.60
2022-08-03T08:58:47.272Z,5.20
2022-08-03T09:01:13.957Z,6.95
2022-08-03T09:03:41.326Z,4.57
2022-08-03T09:06:08.510Z,6.18
2022-08-03T09:08:35.830Z,6.47
2022-08-03T09:11:03.026Z,3.92
2022-08-03T09:13:31.109Z,5.80
2022-08-03T09:16:19.855Z,4.18
2022-08-03T09:18:50.220Z,3.10
2022-08-03T09:21:34.152Z,4.60
2022-08-03T09:24:05.359Z,4.85
2022-08-03T09:26:35.482Z,3.97
2022-08-03T09:29:08.149Z,6.32
2022-08-03T09:31:44.030Z,4.80
2022-08-03T09:34:16.626Z,2.88
2022-08-03T09:36:51.088Z,4.68
2022-08-03T09:39:40.200Z,3.67
2022-08-03T09:42:15.438Z,4.40
2022-08-03T09:44:44.964Z,3.60
2022-08-03T09:47:13.593Z,3.35
2022-08-03T09:49:41.868Z,5.13
2022-08-03T09:52:31.951Z,5.88
2022-08-03T09:55:02.517Z,6.55
2022-08-03T09:57:33.085Z,3.22
2022-08-03T10:00:13.829Z,5.70
2022-08-03T10:02:42.296Z,7.65
2022-08-03T10:05:19.577Z,5.95
2022-08-03T10:07:48.788Z,3.95
2022-08-03T10:10:30.176Z,5.38
2022-08-03T10:13:00.256Z,4.18
2022-08-03T10:16:24.148Z,3.90
2022-08-03T10:18:14.473Z,4.20
2022-08-03T10:20:49.675Z,3.53
2022-08-03T10:23:18.584Z,4.68
2022-08-03T10:25:52.966Z,3.20
2022-08-03T10:28:21.844Z,5.18
2022-08-03T10:30:52.922Z,3.50
2022-08-03T10:33:50.713Z,3.67
2022-08-03T10:36:13.617Z,3.47
2022-08-03T10:38:54.242Z,4.25
2022-08-03T10:41:23.457Z,7.10
2022-08-03T10:44:10.459Z,3.35
2022-08-03T10:46:44.560Z,6.07
2022-08-03T10:49:21.470Z,4.30
2022-08-03T10:52:05.247Z,4.60
2022-08-03T10:55:10.033Z,2.90
2022-08-03T10:57:58.227Z,3.95
2022-08-03T11:00:28.125Z,6.32
2022-08-03T11:03:13.050Z,3.28
2022-08-03T11:05:42.388Z,3.60
2022-08-03T11:08:23.195Z,4.63
2022-08-03T11:10:53.024Z,4.93
2022-08-03T11:13:22.545Z,5.47
2022-08-03T11:15:52.214Z,8.75
2022-08-03T11:18:23.532Z,6.63
2022-08-03T11:20:59.487Z,4.10
2022-08-03T11:24:05.098Z,5.55
2022-08-03T11:26:36.507Z,3.75
2022-08-03T11:29:29.679Z,5.20
2022-08-03T11:31:57.130Z,6.53
2022-08-03T11:34:24.782Z,6.85
2022-08-03T11:37:30.161Z,6.30
2022-08-03T11:39:58.199Z,6.05
2022-08-03T11:42:25.036Z,7.20
2022-08-03T11:44:53.750Z,4.05
2022-08-03T11:47:21.843Z,5.20
2022-08-03T11:49:50.573Z,6.32
2022-08-03T11:52:18.253Z,4.10
2022-08-03T11:54:46.180Z,4.57
2022-08-03T11:57:13.514Z,5.90
2022-08-03T11:59:40.288Z,3.88
2022-08-03T12:02:16.155Z,7.55
2022-08-03T12:05:01.381Z,4.60
2022-08-03T12:08:04.566Z,4.63
2022-08-03T12:10:16.051Z,4.15
2022-08-03T12:12:46.799Z,3.28
2022-08-03T12:15:13.563Z,4.13
2022-08-03T12:17:41.939Z,4.90
2022-08-03T12:20:10.319Z,4.68
2022-08-03T12:22:39.818Z,3.65
2022-08-03T12:25:10.313Z,5.25
2022-08-03T12:27:37.059Z,5.32
2022-08-03T12:30:05.012Z,3.58
2022-08-03T12:32:31.802Z,4.38
2022-08-03T12:35:02.031Z,4.70
2022-08-03T12:37:29.757Z,3.08
2022-08-03T12:40:09.973Z,3.35
2022-08-03T12:42:39.609Z,4.20
2022-08-03T12:45:27.627Z,4.53
2022-08-03T12:47:57.095Z,4.38
2022-08-03T12:50:32.857Z,4.38
2022-08-03T12:55:57.128Z,5.82
2022-08-03T12:58:34.243Z,5.13
2022-08-03T13:01:04.842Z,8.43
2022-08-03T13:03:42.777Z,4.10
2022-08-03T13:06:17.675Z,4.85
2022-08-03T13:08:46.182Z,5.63
2022-08-03T13:11:57.218Z,5.45
2022-08-03T13:14:19.681Z,4.07
2022-08-03T13:16:47.615Z,6.95
2022-08-03T13:19:15.527Z,4.88
2022-08-03T13:21:53.834Z,8.10
2022-08-03T13:24:31.590Z,4.53
2022-08-03T13:27:22.551Z,4.55
2022-08-03T13:29:48.395Z,4.28
2022-08-03T13:32:14.937Z,7.55
2022-08-03T13:34:41.584Z,6.55
2022-08-03T13:37:09.639Z,3.05
2022-08-03T13:39:57.339Z,4.45
2022-08-03T13:42:23.606Z,4.72
2022-08-03T13:44:50.926Z,4.38
2022-08-03T13:47:18.179Z,3.38
2022-08-03T13:50:00.516Z,5.80
2022-08-03T13:52:34.112Z,4.60
2022-08-03T13:55:01.929Z,5.72
2022-08-03T13:58:03.181Z,5.53
2022-08-03T14:00:27.134Z,4.80
2022-08-03T14:03:06.614Z,5.65
2022-08-03T14:05:39.255Z,6.13
2022-08-03T14:08:07.193Z,5.03
2022-08-03T14:10:35.991Z,10.13
2022-08-03T14:13:06.061Z,5.57
2022-08-03T14:15:37.936Z,3.95
2022-08-03T14:18:06.238Z,6.80
2022-08-03T14:20:37.799Z,4.53
2022-08-03T14:23:12.975Z,5.10
2022-08-03T14:25:50.416Z,4.63
2022-08-03T14:28:20.907Z,4.50
2022-08-03T14:30:48.747Z,6.57
2022-08-03T14:33:15.808Z,3.92
2022-08-03T14:35:42.826Z,4.88
2022-08-03T14:38:09.481Z,4.25
2022-08-03T14:40:36.272Z,2.58
2022-08-03T14:43:02.945Z,4.82
2022-08-03T14:45:29.568Z,5.28
2022-08-03T14:49:02.650Z,7.53
2022-08-03T14:50:51.513Z,2.38
2022-08-03T14:53:20.146Z,3.17
2022-08-03T14:55:51.773Z,3.33
2022-08-03T14:58:23.697Z,2.78
2022-08-03T15:00:51.883Z,3.25
2022-08-03T15:03:23.399Z,4.63
2022-08-03T15:05:56.008Z,7.97
2022-08-03T15:08:24.302Z,4.13
2022-08-03T15:10:53.267Z,2.78
2022-08-03T15:13:23.853Z,3.20
2022-08-03T15:15:51.863Z,3.33
2022-08-03T15:18:20.444Z,3.45
2022-08-03T15:20:51.141Z,3.83
2022-08-03T15:23:18.755Z,4.30
2022-08-03T15:26:03.923Z,3.65
2022-08-03T15:28:37.307Z,8.43
2022-08-03T15:31:04.729Z,5.75
2022-08-03T15:33:31.873Z,5.30
2022-08-03T15:36:00.517Z,2.97
2022-08-03T15:38:27.287Z,2.42
2022-08-03T15:40:57.094Z,3.05
2022-08-03T15:43:23.970Z,3.42
2022-08-03T15:46:12.766Z,7.60
2022-08-03T15:48:38.386Z,5.90
2022-08-03T15:51:05.778Z,7.50
2022-08-03T15:53:33.751Z,5.07
2022-08-03T15:56:02.046Z,4.45
2022-08-03T15:59:09.649Z,4.55
2022-08-03T16:01:20.358Z,4.90
2022-08-03T16:03:47.586Z,5.78
2022-08-03T16:06:14.352Z,3.70
2022-08-03T16:08:41.171Z,4.25
2022-08-03T16:11:08.019Z,5.63
2022-08-03T16:14:12.871Z,4.05
2022-08-03T16:16:21.634Z,5.72
2022-08-03T16:18:48.413Z,7.20
2022-08-03T16:21:15.610Z,3.83
2022-08-03T16:23:47.076Z,4.55
2022-08-03T16:26:14.116Z,5.38
2022-08-03T16:28:40.875Z,3.58
2022-08-03T16:31:09.392Z,2.53
2022-08-03T16:33:36.140Z,5.68
2022-08-03T16:36:03.050Z,5.72
2022-08-03T16:38:32.572Z,4.07
2022-08-03T16:40:59.351Z,8.23
2022-08-03T16:43:26.343Z,8.35
2022-08-03T16:45:53.281Z,4.03
2022-08-03T16:48:20.250Z,6.22
2022-08-03T16:50:47.536Z,3.92
2022-08-03T16:53:16.676Z,4.30
2022-08-03T16:55:53.448Z,5.55
2022-08-03T16:58:41.704Z,5.32
2022-08-03T17:01:24.129Z,3.55
2022-08-03T17:04:03.123Z,5.38
2022-08-03T17:06:36.855Z,3.97
2022-08-03T17:09:13.467Z,5.25
2022-08-03T17:11:47.839Z,9.32
2022-08-03T17:14:17.584Z,4.60
2022-08-03T17:16:54.697Z,4.55
2022-08-03T17:19:26.718Z,3.35
2022-08-03T17:22:10.805Z,2.45
2022-08-03T17:24:44.460Z,4.55
2022-08-03T17:28:41.437Z,3.50
2022-08-03T17:30:13.603Z,1.70
2022-08-03T17:32:56.856Z,2.88
2022-08-03T17:35:36.674Z,3.60
2022-08-03T17:38:13.839Z,4.03
2022-08-03T17:40:48.138Z,4.10
2022-08-03T17:44:13.250Z,3.83
2022-08-03T17:46:10.617Z,6.03
2022-08-03T17:48:41.368Z,3.03
2022-08-03T17:51:26.685Z,3.50
2022-08-03T17:54:18.030Z,3.03
2022-08-03T18:00:33.355Z,3.97
2022-08-03T18:03:24.865Z,3.45
2022-08-03T18:06:11.276Z,3.20
2022-08-03T18:08:50.625Z,2.53
2022-08-03T18:11:21.886Z,3.70
2022-08-03T18:14:16.991Z,5.82
2022-08-03T18:16:57.638Z,4.75
2022-08-03T18:20:02.635Z,5.43
2022-08-03T18:22:15.644Z,4.57
2022-08-03T18:24:42.445Z,6.75
2022-08-03T18:27:13.760Z,7.10
2022-08-03T18:29:43.364Z,6.03
2022-08-03T18:32:16.824Z,6.07
2022-08-03T18:34:53.840Z,9.35
2022-08-03T18:37:25.230Z,6.68
2022-08-03T18:39:55.554Z,5.55
2022-08-03T18:42:26.141Z,6.32
2022-08-03T18:44:55.860Z,5.00
2022-08-03T18:47:50.617Z,5.18
2022-08-03T18:50:29.009Z,7.30
2022-08-03T18:53:19.612Z,7.13
2022-08-03T18:56:02.442Z,6.10
2022-08-03T18:58:48.366Z,9.52
2022-08-03T19:01:57.706Z,6.35
2022-08-03T19:04:35.351Z,7.78
2022-08-03T19:07:09.211Z,7.47
2022-08-03T19:09:48.006Z,4.50
2022-08-03T19:12:28.290Z,8.07
2022-08-03T19:15:04.494Z,5.97
2022-08-03T19:17:36.091Z,5.30
2022-08-03T19:20:06.329Z,5.05
2022-08-03T19:22:33.443Z,3.80
2022-08-03T19:25:02.336Z,5.10
2022-08-03T19:27:31.148Z,5.32
2022-08-03T19:30:03.900Z,6.20
2022-08-03T19:32:32.633Z,4.60
2022-08-03T19:35:01.790Z,7.57
2022-08-03T19:37:38.723Z,7.13
2022-08-03T19:40:10.419Z,8.77
2022-08-03T19:43:00.285Z,5.28
2022-08-03T19:46:05.440Z,3.38
2022-08-03T19:48:28.917Z,4.07
2022-08-03T19:50:58.024Z,5.07
2022-08-03T19:53:35.268Z,4.95
2022-08-03T19:58:35.421Z,5.95
2022-08-03T20:01:19.440Z,2.88
2022-08-03T20:03:49.554Z,8.30
2022-08-03T20:06:17.843Z,9.05
2022-08-03T20:08:45.510Z,8.27
2022-08-03T20:11:18.086Z,6.35
2022-08-03T20:13:48.385Z,4.25
2022-08-03T20:16:15.098Z,4.38
2022-08-03T20:18:42.777Z,4.78
2022-08-03T20:21:14.892Z,4.97
2022-08-03T20:24:01.874Z,4.43
2022-08-03T20:26:31.684Z,4.32
2022-08-03T20:29:09.863Z,5.57
2022-08-03T20:31:37.584Z,2.53
2022-08-03T20:34:06.274Z,8.57
2022-08-03T20:36:32.871Z,5.43
2022-08-03T20:38:59.652Z,4.18
2022-08-03T20:41:26.524Z,3.35
2022-08-03T20:43:53.146Z,3.58
2022-08-03T20:46:32.853Z,5.70
2022-08-03T20:49:05.729Z,4.55
2022-08-03T20:51:50.471Z,3.90
2022-08-03T20:54:29.733Z,3.63
2022-08-03T20:57:00.010Z,4.25
2022-08-03T20:59:36.883Z,4.18
2022-08-03T21:02:19.639Z,3.95
2022-08-03T21:04:56.003Z,4.35
2022-08-03T21:07:24.294Z,2.78
2022-08-03T21:09:52.747Z,2.97
2022-08-03T21:12:51.226Z,2.72
2022-08-03T21:12:55.925Z,3.22
2022-08-03T21:16:06.456Z,4.90
2022-08-03T21:18:11.847Z,6.47
2022-08-03T21:20:38.811Z,5.10
2022-08-03T21:23:09.124Z,4.45
2022-08-03T21:25:37.947Z,6.03
2022-08-03T21:28:07.577Z,4.88
2022-08-03T21:30:35.160Z,4.45
2022-08-03T21:33:02.209Z,4.30
2022-08-03T21:35:28.727Z,6.65
2022-08-03T21:38:13.806Z,6.70
2022-08-03T21:40:41.187Z,4.05
2022-08-03T21:43:08.354Z,4.18
2022-08-03T21:45:57.720Z,4.75
2022-08-03T21:48:25.590Z,5.78
2022-08-03T21:50:52.659Z,6.43
2022-08-03T21:53:19.851Z,5.07
2022-08-03T21:55:58.571Z,4.40
2022-08-03T21:58:30.964Z,7.03
2022-08-03T22:00:59.291Z,4.70
2022-08-03T22:03:26.622Z,5.55
2022-08-03T22:05:54.724Z,6.95
2022-08-03T22:08:34.397Z,4.45
2022-08-03T22:11:04.358Z,3.72
2022-08-03T22:13:43.603Z,3.45
2022-08-03T22:16:11.907Z,4.85
2022-08-03T22:18:41.058Z,5.70
2022-08-03T22:21:09.866Z,4.50
2022-08-03T22:23:48.816Z,8.38
2022-08-03T22:26:34.120Z,6.15
2022-08-03T22:29:01.960Z,5.28
2022-08-03T22:31:56.886Z,5.53
2022-08-03T22:34:15.364Z,4.72
2022-08-03T22:36:42.698Z,5.57
2022-08-03T22:39:09.855Z,4.80
2022-08-03T22:41:36.587Z,6.07
2022-08-03T22:44:04.773Z,3.90
2022-08-03T22:46:33.834Z,8.02
2022-08-03T22:49:01.414Z,3.63
2022-08-03T22:51:28.276Z,6.45
2022-08-03T22:53:55.173Z,6.47
2022-08-03T22:56:22.291Z,8.05
2022-08-03T22:58:48.884Z,5.65
2022-08-03T23:01:21.116Z,5.93
2022-08-03T23:03:58.617Z,7.93
2022-08-03T23:06:32.372Z,8.85
2022-08-03T23:08:59.029Z,3.85
2022-08-03T23:11:27.136Z,6.78
2022-08-03T23:13:56.508Z,8.55
2022-08-03T23:16:28.688Z,6.07
2022-08-03T23:18:57.971Z,5.20
2022-08-03T23:21:53.237Z,5.38
2022-08-03T23:24:17.736Z,5.65
2022-08-03T23:26:53.769Z,4.05
2022-08-03T23:29:21.688Z,4.20
2022-08-03T23:31:49.717Z,5.88
2022-08-03T23:34:36.279Z,6.32
2022-08-03T23:37:05.482Z,3.85
2022-08-03T23:39:35.307Z,6.47
2022-08-03T23:42:03.058Z,7.13
2022-08-03T23:44:31.971Z,7.47
2022-08-03T23:46:58.594Z,7.43
2022-08-03T23:49:25.171Z,4.00
2022-08-03T23:52:07.294Z,4.68
2022-08-03T23:54:33.893Z,7.97
2022-08-03T23:57:13.279Z,5.05
